• Join FlightAware (Why Join?)
  • Login
  • US Flag 
02:28AM EDT


 

Airport Tracker/Info


-or-


 

Live Flight TrackerFlight Track Log ✈ KAP2826 ✈ 07-May-2013 ✈ KBOS - KACK

Flight Track Log - Related Links

Times and Time Zones

All times are in EDT time to prevent confusion due to time zone crossing. See the KAP2826 flight status page for this flight to view local times or setup timezone preferences in your user account.

Time Position Orientation Groundspeed Altitude Reporting Facility
EDT Latitude Longitude Course Direction KTS MPH feet Rate Location/Type
02:34PM 42.3500 -70.9333 114° Southeast 117 135 1,000  Level KA90
02:35PM 42.3333 -70.8833 114° Southeast 125 144 1,600 480 Climbing KA90
02:36PM 42.3167 -70.8667 144° Southeast 119 137 2,000 480 Climbing KA90
02:37PM 42.2833 -70.8167 132° Southeast 128 147 2,600 420 Climbing KA90
02:38PM 42.2316 -70.8923 109° East  Level Estimated
02:38PM 42.2500 -70.7833 143° Southeast 132 152 3,000  Level KA90
02:39PM 42.2167 -70.7667 160° South 138 159 3,400 420 Climbing KA90
02:40PM 42.1833 -70.7500 160° South 136 157 3,900 480 Climbing KA90
02:41PM 42.1500 -70.7167 143° Southeast 132 152 4,400 480 Climbing KA90
02:42PM 42.1167 -70.7000 160° South 132 152 4,900 240 Climbing KA90
02:43PM 42.0833 -70.6833 160° South 142 163 5,000  Climbing KA90
02:44PM 42.0333 -70.6667 166° South 154 177 5,000  Level KA90
02:46PM 41.9981 -70.6389 150° Southeast  Level Estimated
02:53PM 41.8409 -70.5155 150° Southeast  Level Estimated
02:54PM 41.8184 -70.4979 150° Southeast  Level Estimated
02:55PM 41.7959 -70.4803 150° Southeast  Level Estimated
02:56PM 41.7734 -70.4627 150° Southeast  Level Estimated
02:57PM 41.7509 -70.4452 150° Southeast  Level Estimated
02:58PM 41.7284 -70.4276 150° Southeast  Level Estimated
02:59PM 41.7059 -70.4101 150° Southeast  Level Estimated
03:00PM 41.6834 -70.3926 150° Southeast  Level Estimated
03:01PM 41.6609 -70.3751 150° Southeast  Level Estimated
03:02PM 41.6384 -70.3576 150° Southeast  Level Estimated
03:03PM 41.6159 -70.3401 150° Southeast  Level Estimated
03:04PM 41.5934 -70.3226 150° Southeast  Level Estimated
03:05PM 41.5709 -70.3052 150° Southeast  Level Estimated
03:06PM 41.5484 -70.2878 150° Southeast  Level Estimated
03:07PM 41.5259 -70.2703 150° Southeast  Level Estimated
03:08PM 41.5033 -70.2529 150° Southeast  Level Estimated
03:09PM 41.4808 -70.2355 150° Southeast  Level Estimated
03:10PM 41.4583 -70.2181 150° Southeast  Level Estimated
03:11PM 41.4358 -70.2007 150° Southeast  Level Estimated
03:12PM 41.4132 -70.1834 150° Southeast  Level Estimated